createdAt,value
2017-12-06T00:00:57.494Z,0
2017-12-06T00:01:57.242Z,0
2017-12-06T00:02:57.831Z,0
2017-12-06T00:03:57.777Z,0
2017-12-06T00:04:57.794Z,0
2017-12-06T00:05:57.554Z,0
2017-12-06T00:06:57.824Z,0
2017-12-06T00:07:57.829Z,0
2017-12-06T00:08:57.856Z,0
2017-12-06T00:09:57.867Z,0
2017-12-06T00:10:57.871Z,0
2017-12-06T00:11:57.886Z,0
2017-12-06T00:12:57.660Z,0
2017-12-06T00:13:58.169Z,0
2017-12-06T00:14:58.181Z,0
2017-12-06T00:15:57.693Z,0
2017-12-06T00:16:58.207Z,0
2017-12-06T00:17:58.020Z,0
2017-12-06T00:18:57.736Z,0
2017-12-06T00:19:58.001Z,0
2017-12-06T00:20:58.047Z,0
2017-12-06T00:21:58.034Z,0
2017-12-06T00:22:58.044Z,0
2017-12-06T00:23:58.055Z,0
2017-12-06T00:24:58.102Z,0
2017-12-06T00:25:58.335Z,0
2017-12-06T00:26:57.842Z,0
2017-12-06T00:27:58.119Z,0
2017-12-06T00:28:57.741Z,0
2017-12-06T00:29:57.881Z,0
2017-12-06T00:30:58.147Z,0
2017-12-06T00:31:58.159Z,0
2017-12-06T00:32:58.473Z,0
2017-12-06T00:33:58.248Z,0
2017-12-06T00:34:58.254Z,0
2017-12-06T00:35:58.218Z,0
2017-12-06T00:36:58.237Z,0
2017-12-06T00:37:58.239Z,0
2017-12-06T00:38:58.251Z,0
2017-12-06T00:39:58.364Z,0
2017-12-06T00:40:58.538Z,0
2017-12-06T00:41:58.295Z,0
2017-12-06T00:42:58.580Z,0
2017-12-06T00:43:58.327Z,0
2017-12-06T00:44:58.088Z,0
2017-12-06T00:45:58.100Z,0
2017-12-06T00:46:58.624Z,0
2017-12-06T00:47:58.380Z,0
2017-12-06T00:48:58.392Z,0
2017-12-06T00:49:58.460Z,0
2017-12-06T00:50:58.422Z,0
2017-12-06T00:51:58.727Z,0
2017-12-06T00:52:58.724Z,0
2017-12-06T00:53:58.462Z,0
2017-12-06T00:54:57.975Z,0
2017-12-06T00:55:58.497Z,0
2017-12-06T00:56:58.774Z,0
2017-12-06T00:57:58.516Z,0
2017-12-06T00:58:58.530Z,0
2017-12-06T00:59:58.795Z,0
2017-12-06T01:00:58.556Z,0
2017-12-06T01:01:58.622Z,0
2017-12-06T01:02:58.338Z,0
2017-12-06T01:03:58.611Z,0
2017-12-06T01:04:58.663Z,0
2017-12-06T01:05:58.371Z,0
2017-12-06T01:06:58.387Z,0
2017-12-06T01:07:58.908Z,0
2017-12-06T01:08:58.920Z,0
2017-12-06T01:09:58.931Z,0
2017-12-06T01:10:58.690Z,0
2017-12-06T01:11:58.456Z,0
2017-12-06T01:12:58.967Z,0
2017-12-06T01:13:58.502Z,0
2017-12-06T01:14:58.499Z,0
2017-12-06T01:15:58.506Z,0
2017-12-06T01:16:58.267Z,0
2017-12-06T01:17:58.533Z,0
2017-12-06T01:18:58.800Z,0
2017-12-06T01:19:58.868Z,0
2017-12-06T01:20:58.827Z,0
2017-12-06T01:21:59.093Z,0
2017-12-06T01:22:58.347Z,0
2017-12-06T01:23:59.115Z,0
2017-12-06T01:24:58.629Z,0
2017-12-06T01:25:58.638Z,0
2017-12-06T01:26:59.157Z,0
2017-12-06T01:27:59.180Z,0
2017-12-06T01:28:59.182Z,0
2017-12-06T01:29:58.944Z,0
2017-12-06T01:30:59.209Z,0
2017-12-06T01:31:59.223Z,0
2017-12-06T01:32:59.254Z,0
2017-12-06T01:33:59.004Z,0
2017-12-06T01:34:58.808Z,0
2017-12-06T01:35:59.284Z,0
2017-12-06T01:36:58.787Z,0
2017-12-06T01:37:58.546Z,0
2017-12-06T01:38:59.318Z,0
2017-12-06T01:39:59.214Z,0
2017-12-06T01:40:59.336Z,0
2017-12-06T01:41:58.843Z,0
2017-12-06T01:42:59.372Z,0
2017-12-06T01:43:59.124Z,0
2017-12-06T01:44:59.392Z,0
2017-12-06T01:45:59.406Z,0
2017-12-06T01:46:58.660Z,0
2017-12-06T01:47:59.427Z,0
2017-12-06T01:48:59.200Z,0
2017-12-06T01:49:59.467Z,0
2017-12-06T01:50:59.639Z,0
2017-12-06T01:51:58.744Z,0
2017-12-06T01:52:59.255Z,0
2017-12-06T01:53:59.266Z,0
2017-12-06T01:54:59.280Z,0
2017-12-06T01:55:59.298Z,0
2017-12-06T01:56:59.313Z,0
2017-12-06T01:57:59.070Z,0
2017-12-06T01:58:59.329Z,0
2017-12-06T01:59:59.345Z,0
2017-12-06T02:00:59.616Z,0
2017-12-06T02:01:58.872Z,0
2017-12-06T02:02:59.387Z,0
2017-12-06T02:03:59.416Z,0
2017-12-06T02:04:59.670Z,0
2017-12-06T02:05:59.736Z,0
2017-12-06T02:06:59.708Z,0
2017-12-06T02:07:59.899Z,0
2017-12-06T02:08:58.964Z,0
2017-12-06T02:09:59.737Z,0
2017-12-06T02:10:59.237Z,0
2017-12-06T02:11:59.516Z,0
2017-12-06T02:12:59.268Z,0
2017-12-06T02:13:59.543Z,0
2017-12-06T02:14:59.793Z,0
2017-12-06T02:15:59.360Z,0
2017-12-06T02:16:59.577Z,0
2017-12-06T02:17:59.332Z,0
2017-12-06T02:18:59.344Z,0
2017-12-06T02:19:59.365Z,0
2017-12-06T02:20:59.625Z,0
2017-12-06T02:21:59.886Z,0
2017-12-06T02:22:59.917Z,0
2017-12-06T02:23:59.166Z,0
2017-12-06T02:24:59.672Z,0
2017-12-06T02:25:59.693Z,0
2017-12-06T02:26:59.956Z,0
2017-12-06T02:27:59.467Z,0
2017-12-06T02:28:59.987Z,0
2017-12-06T02:29:59.493Z,0
2017-12-06T02:31:00.044Z,0
2017-12-06T02:31:59.537Z,0
2017-12-06T02:32:59.800Z,0
2017-12-06T02:34:00.056Z,0
2017-12-06T02:34:59.815Z,0
2017-12-06T02:36:00.146Z,0
2017-12-06T02:37:00.180Z,0
2017-12-06T02:37:59.859Z,0
2017-12-06T02:38:59.864Z,0
2017-12-06T02:40:00.134Z,0
2017-12-06T02:40:59.389Z,0
2017-12-06T02:41:59.903Z,0
2017-12-06T02:42:59.416Z,0
2017-12-06T02:43:59.695Z,0
2017-12-06T02:45:00.207Z,0
2017-12-06T02:46:00.212Z,0
2017-12-06T02:46:59.965Z,0
2017-12-06T02:48:00.236Z,0
2017-12-06T02:49:00.323Z,0
2017-12-06T02:50:00.279Z,0
2017-12-06T02:51:00.332Z,0
2017-12-06T02:52:00.046Z,0
2017-12-06T02:53:00.303Z,0
2017-12-06T02:54:00.063Z,0
2017-12-06T02:55:00.343Z,0
2017-12-06T02:56:00.343Z,0
2017-12-06T02:57:00.103Z,0
2017-12-06T02:58:00.123Z,0
2017-12-06T02:59:00.135Z,0
2017-12-06T03:00:00.454Z,0
2017-12-06T03:01:00.150Z,0
2017-12-06T03:02:00.164Z,0
2017-12-06T03:02:59.935Z,0
2017-12-06T03:04:00.194Z,0
2017-12-06T03:04:59.960Z,0
2017-12-06T03:06:00.522Z,0
2017-12-06T03:07:00.257Z,0
2017-12-06T03:08:00.242Z,0
2017-12-06T03:09:00.273Z,0
2017-12-06T03:10:00.015Z,0
2017-12-06T03:11:00.537Z,0
2017-12-06T03:12:00.296Z,0
2017-12-06T03:13:00.309Z,0
2017-12-06T03:14:00.333Z,0
2017-12-06T03:15:00.082Z,0
2017-12-06T03:16:00.096Z,0
2017-12-06T03:17:00.356Z,0
2017-12-06T03:18:00.124Z,0
2017-12-06T03:19:00.388Z,0
2017-12-06T03:20:00.652Z,0
2017-12-06T03:21:00.730Z,0
2017-12-06T03:22:00.512Z,0
2017-12-06T03:23:00.696Z,0
2017-12-06T03:24:00.209Z,0
2017-12-06T03:25:00.472Z,0
2017-12-06T03:25:59.725Z,0
2017-12-06T03:26:59.988Z,0
2017-12-06T03:28:00.777Z,0
2017-12-06T03:29:00.525Z,0
2017-12-06T03:30:00.288Z,0
2017-12-06T03:31:00.308Z,0
2017-12-06T03:32:00.327Z,0
2017-12-06T03:33:00.321Z,0
2017-12-06T03:34:00.593Z,0
2017-12-06T03:35:00.353Z,0
2017-12-06T03:36:00.413Z,0
2017-12-06T03:37:00.876Z,0
2017-12-06T03:38:00.649Z,0
2017-12-06T03:39:00.659Z,0
2017-12-06T03:40:00.921Z,0
2017-12-06T03:41:00.932Z,0
2017-12-06T03:42:00.192Z,0
2017-12-06T03:43:00.705Z,0
2017-12-06T03:44:00.977Z,0
2017-12-06T03:45:00.724Z,0
2017-12-06T03:46:00.743Z,0
2017-12-06T03:47:00.506Z,0
2017-12-06T03:48:00.266Z,0
2017-12-06T03:49:00.787Z,0
2017-12-06T03:50:00.820Z,0
2017-12-06T03:51:01.119Z,0
2017-12-06T03:52:01.089Z,0
2017-12-06T03:53:00.581Z,0
2017-12-06T03:54:00.859Z,0
2017-12-06T03:55:01.113Z,0
2017-12-06T03:56:00.638Z,0
2017-12-06T03:57:00.632Z,0
2017-12-06T03:58:01.154Z,0
2017-12-06T03:59:00.918Z,0
2017-12-06T04:00:00.921Z,0
2017-12-06T04:01:01.202Z,0
2017-12-06T04:02:01.212Z,0
2017-12-06T04:03:00.967Z,0
2017-12-06T04:04:00.980Z,0
2017-12-06T04:05:01.012Z,0
2017-12-06T04:06:00.798Z,0
2017-12-06T04:07:00.514Z,0
2017-12-06T04:08:01.028Z,0
2017-12-06T04:09:00.536Z,0
2017-12-06T04:10:01.307Z,0
2017-12-06T04:11:01.330Z,0
2017-12-06T04:12:00.825Z,0
2017-12-06T04:13:01.088Z,0
2017-12-06T04:14:00.602Z,0
2017-12-06T04:15:01.109Z,0
2017-12-06T04:16:01.378Z,0
2017-12-06T04:17:01.147Z,0
2017-12-06T04:18:00.908Z,0
2017-12-06T04:19:01.431Z,0
2017-12-06T04:20:01.185Z,0
2017-12-06T04:21:01.251Z,0
2017-12-06T04:22:01.519Z,0
2017-12-06T04:23:01.212Z,0
2017-12-06T04:24:01.477Z,0
2017-12-06T04:25:01.241Z,0
2017-12-06T04:26:00.855Z,0
2017-12-06T04:27:01.518Z,0
2017-12-06T04:28:01.026Z,0
2017-12-06T04:29:01.539Z,0
2017-12-06T04:30:01.559Z,0
2017-12-06T04:31:01.317Z,0
2017-12-06T04:32:01.576Z,0
2017-12-06T04:33:01.653Z,0
2017-12-06T04:34:01.606Z,0
2017-12-06T04:35:01.375Z,0
2017-12-06T04:36:01.676Z,0
2017-12-06T04:37:01.389Z,0
2017-12-06T04:38:01.407Z,0
2017-12-06T04:39:01.673Z,0
2017-12-06T04:40:01.695Z,0
2017-12-06T04:41:01.683Z,0
2017-12-06T04:42:00.942Z,0
2017-12-06T04:43:01.711Z,0
2017-12-06T04:44:01.472Z,0
2017-12-06T04:45:01.233Z,0
2017-12-06T04:46:01.751Z,0
2017-12-06T04:47:01.007Z,0
2017-12-06T04:48:01.526Z,0
2017-12-06T04:49:01.537Z,0
2017-12-06T04:50:01.822Z,0
2017-12-06T04:51:01.110Z,0
2017-12-06T04:52:01.833Z,0
2017-12-06T04:53:01.596Z,0
2017-12-06T04:54:01.604Z,0
2017-12-06T04:55:01.863Z,0
2017-12-06T04:56:01.630Z,0
2017-12-06T04:57:01.642Z,0
2017-12-06T04:58:01.653Z,0
2017-12-06T04:59:01.662Z,0
2017-12-06T05:00:01.929Z,0
2017-12-06T05:01:02.002Z,0
2017-12-06T05:02:01.448Z,0
2017-12-06T05:03:01.715Z,0
2017-12-06T05:04:01.999Z,0
2017-12-06T05:05:01.996Z,0
2017-12-06T05:06:02.056Z,0
2017-12-06T05:07:01.811Z,0
2017-12-06T05:08:01.527Z,0
2017-12-06T05:09:01.539Z,0
2017-12-06T05:10:01.552Z,0
2017-12-06T05:11:02.068Z,0
2017-12-06T05:12:01.835Z,0
2017-12-06T05:13:01.588Z,0
2017-12-06T05:14:02.117Z,0
2017-12-06T05:15:01.869Z,0
2017-12-06T05:16:02.130Z,0
2017-12-06T05:17:01.897Z,0
2017-12-06T05:18:01.905Z,0
2017-12-06T05:19:01.919Z,0
2017-12-06T05:20:01.685Z,0
2017-12-06T05:21:02.198Z,0
2017-12-06T05:22:01.961Z,0
2017-12-06T05:23:02.023Z,0
2017-12-06T05:24:01.983Z,0
2017-12-06T05:25:01.997Z,0
2017-12-06T05:26:01.756Z,0
2017-12-06T05:27:02.027Z,0
2017-12-06T05:28:02.293Z,0
2017-12-06T05:29:02.047Z,0
2017-12-06T05:30:01.806Z,0
2017-12-06T05:31:02.069Z,0
2017-12-06T05:32:02.088Z,0
2017-12-06T05:33:02.354Z,0
2017-12-06T05:34:01.861Z,0
2017-12-06T05:35:02.382Z,0
2017-12-06T05:36:02.129Z,0
2017-12-06T05:37:02.147Z,0
2017-12-06T05:38:01.979Z,0
2017-12-06T05:39:02.430Z,0
2017-12-06T05:40:02.445Z,0
2017-12-06T05:41:02.452Z,0
2017-12-06T05:42:01.961Z,0
2017-12-06T05:43:02.228Z,0
2017-12-06T05:44:02.500Z,0
2017-12-06T05:45:01.743Z,0
2017-12-06T05:46:02.261Z,0
2017-12-06T05:47:02.023Z,0
2017-12-06T05:48:02.292Z,0
2017-12-06T05:49:02.310Z,0
2017-12-06T05:50:02.317Z,0
2017-12-06T05:51:02.585Z,0
2017-12-06T05:52:02.597Z,0
2017-12-06T05:53:02.655Z,0
2017-12-06T05:54:02.621Z,0
2017-12-06T05:55:02.134Z,0
2017-12-06T05:56:02.652Z,0
2017-12-06T05:57:02.174Z,0
2017-12-06T05:58:02.167Z,0
2017-12-06T05:59:02.490Z,0
2017-12-06T06:00:02.700Z,0
2017-12-06T06:01:02.733Z,0
2017-12-06T06:02:02.277Z,0
2017-12-06T06:03:02.240Z,0
2017-12-06T06:04:02.253Z,0
2017-12-06T06:05:02.515Z,0
2017-12-06T06:06:02.529Z,0
2017-12-06T06:07:02.796Z,0
2017-12-06T06:08:02.850Z,0
2017-12-06T06:09:02.562Z,0
2017-12-06T06:10:02.832Z,0
2017-12-06T06:11:02.836Z,0
2017-12-06T06:12:02.597Z,0
2017-12-06T06:13:02.616Z,0
2017-12-06T06:14:02.635Z,0
2017-12-06T06:15:02.641Z,0
2017-12-06T06:16:02.917Z,0
2017-12-06T06:17:02.678Z,0
2017-12-06T06:18:02.935Z,0
2017-12-06T06:19:02.943Z,0
2017-12-06T06:20:02.707Z,0
2017-12-06T06:21:03.168Z,0
2017-12-06T06:22:02.983Z,0
2017-12-06T06:23:02.546Z,0
2017-12-06T06:24:03.011Z,0
2017-12-06T06:25:02.549Z,0
2017-12-06T06:26:03.040Z,0
2017-12-06T06:27:02.297Z,0
2017-12-06T06:28:02.818Z,0
2017-12-06T06:29:02.830Z,0
2017-12-06T06:30:02.835Z,0
2017-12-06T06:31:03.100Z,0
2017-12-06T06:32:02.362Z,0
2017-12-06T06:33:03.179Z,0
2017-12-06T06:34:02.638Z,0
2017-12-06T06:35:02.911Z,0
2017-12-06T06:36:03.167Z,0
2017-12-06T06:37:02.926Z,0
2017-12-06T06:38:03.021Z,0
2017-12-06T06:39:02.702Z,0
2017-12-06T06:40:02.208Z,0
2017-12-06T06:41:02.725Z,0
2017-12-06T06:42:02.745Z,0
2017-12-06T06:43:02.780Z,0
2017-12-06T06:44:03.291Z,0
2017-12-06T06:45:03.036Z,0
2017-12-06T06:46:03.051Z,0
2017-12-06T06:47:02.809Z,0
2017-12-06T06:48:02.818Z,0
2017-12-06T06:49:03.345Z,0
2017-12-06T06:50:03.361Z,0
2017-12-06T06:51:02.858Z,0
2017-12-06T06:52:03.204Z,0
2017-12-06T06:53:03.440Z,0
2017-12-06T06:54:03.151Z,0
2017-12-06T06:55:03.166Z,0
2017-12-06T06:56:03.182Z,0
2017-12-06T06:57:03.191Z,5
2017-12-06T06:58:03.303Z,5
2017-12-06T06:59:03.473Z,5
2017-12-06T07:00:02.736Z,5
2017-12-06T07:01:03.239Z,5
2017-12-06T07:02:03.508Z,5
2017-12-06T07:03:03.032Z,5
2017-12-06T07:04:03.534Z,5
2017-12-06T07:05:03.580Z,5
2017-12-06T07:06:03.298Z,5
2017-12-06T07:07:03.313Z,10
2017-12-06T07:08:03.377Z,10
2017-12-06T07:09:03.597Z,10
2017-12-06T07:10:03.367Z,10
2017-12-06T07:11:03.370Z,10
2017-12-06T07:12:02.880Z,15
2017-12-06T07:13:03.661Z,15
2017-12-06T07:14:03.666Z,15
2017-12-06T07:15:03.677Z,15
2017-12-06T07:16:03.186Z,15
2017-12-06T07:17:03.192Z,15
2017-12-06T07:18:03.458Z,15
2017-12-06T07:19:03.473Z,20
2017-12-06T07:20:03.482Z,20
2017-12-06T07:21:03.743Z,20
2017-12-06T07:22:03.505Z,20
2017-12-06T07:23:03.326Z,20
2017-12-06T07:24:03.530Z,20
2017-12-06T07:25:03.292Z,20
2017-12-06T07:26:03.567Z,20
2017-12-06T07:27:03.880Z,25
2017-12-06T07:28:03.445Z,25
2017-12-06T07:29:03.609Z,25
2017-12-06T07:30:03.625Z,25
2017-12-06T07:31:03.397Z,25
2017-12-06T07:32:03.646Z,25
2017-12-06T07:33:03.662Z,25
2017-12-06T07:34:03.934Z,30
2017-12-06T07:35:03.938Z,30
2017-12-06T07:36:03.958Z,30
2017-12-06T07:37:03.466Z,30
2017-12-06T07:38:03.518Z,30
2017-12-06T07:39:03.758Z,30
2017-12-06T07:40:03.500Z,30
2017-12-06T07:41:03.510Z,30
2017-12-06T07:42:04.027Z,30
2017-12-06T07:43:03.787Z,30
2017-12-06T07:44:04.071Z,35
2017-12-06T07:45:04.065Z,35
2017-12-06T07:46:03.583Z,35
2017-12-06T07:47:04.100Z,35
2017-12-06T07:48:03.857Z,35
2017-12-06T07:49:04.144Z,40
2017-12-06T07:50:03.878Z,35
2017-12-06T07:51:03.637Z,35
2017-12-06T07:52:03.906Z,40
2017-12-06T07:53:04.223Z,40
2017-12-06T07:54:03.428Z,40
2017-12-06T07:55:04.202Z,40
2017-12-06T07:56:04.226Z,45
2017-12-06T07:57:03.971Z,45
2017-12-06T07:58:04.242Z,45
2017-12-06T07:59:04.260Z,45
2017-12-06T08:00:04.021Z,45
2017-12-06T08:01:03.780Z,45
2017-12-06T08:02:04.037Z,45
2017-12-06T08:03:04.077Z,45
2017-12-06T08:04:04.317Z,50
2017-12-06T08:05:03.829Z,50
2017-12-06T08:06:03.840Z,50
2017-12-06T08:07:03.858Z,55
2017-12-06T08:08:04.189Z,55
2017-12-06T08:09:03.908Z,55
2017-12-06T08:10:03.391Z,55
2017-12-06T08:11:04.415Z,55
2017-12-06T08:12:04.436Z,55
2017-12-06T08:13:04.191Z,55
2017-12-06T08:14:04.210Z,60
2017-12-06T08:15:04.213Z,60
2017-12-06T08:16:04.226Z,60
2017-12-06T08:17:04.058Z,65
2017-12-06T08:18:04.256Z,65
2017-12-06T08:19:04.525Z,65
2017-12-06T08:20:04.537Z,65
2017-12-06T08:21:04.545Z,70
2017-12-06T08:22:04.072Z,70
2017-12-06T08:23:04.376Z,70
2017-12-06T08:24:04.086Z,70
2017-12-06T08:25:04.626Z,70
2017-12-06T08:26:04.621Z,70
2017-12-06T08:27:04.640Z,70
2017-12-06T08:28:04.391Z,70
2017-12-06T08:29:04.402Z,75
2017-12-06T08:30:04.422Z,70
2017-12-06T08:31:04.447Z,70
2017-12-06T08:32:04.444Z,70
2017-12-06T08:33:04.204Z,70
2017-12-06T08:34:04.470Z,75
2017-12-06T08:35:04.737Z,75
2017-12-06T08:36:04.491Z,75
2017-12-06T08:37:04.263Z,75
2017-12-06T08:38:04.574Z,75
2017-12-06T08:39:04.050Z,75
2017-12-06T08:40:04.303Z,75
2017-12-06T08:41:04.060Z,75
2017-12-06T08:42:04.329Z,80
2017-12-06T08:43:04.598Z,80
2017-12-06T08:44:04.869Z,80
2017-12-06T08:45:04.879Z,75
2017-12-06T08:46:04.890Z,75
2017-12-06T08:47:04.649Z,80
2017-12-06T08:48:04.154Z,80
2017-12-06T08:49:04.426Z,85
2017-12-06T08:50:04.724Z,80
2017-12-06T08:51:04.453Z,85
2017-12-06T08:52:04.715Z,90
2017-12-06T08:53:04.775Z,90
2017-12-06T08:54:04.998Z,90
2017-12-06T08:55:04.254Z,90
2017-12-06T08:56:04.788Z,90
2017-12-06T08:57:04.528Z,95
2017-12-06T08:58:04.551Z,95
2017-12-06T08:59:04.818Z,95
2017-12-06T09:00:04.576Z,90
2017-12-06T09:01:04.592Z,90
2017-12-06T09:02:04.850Z,90
2017-12-06T09:03:04.613Z,90
2017-12-06T09:04:04.938Z,95
2017-12-06T09:05:04.655Z,100
2017-12-06T09:06:05.168Z,100
2017-12-06T09:07:04.670Z,95
2017-12-06T09:08:05.120Z,95
2017-12-06T09:09:05.203Z,95
2017-12-06T09:10:05.214Z,95
2017-12-06T09:11:04.724Z,95
2017-12-06T09:12:04.738Z,95
2017-12-06T09:13:04.756Z,100
2017-12-06T09:14:05.014Z,100
2017-12-06T09:15:05.043Z,105
2017-12-06T09:16:05.063Z,105
2017-12-06T09:17:05.059Z,105
2017-12-06T09:18:05.077Z,110
2017-12-06T09:19:05.087Z,110
2017-12-06T09:20:05.106Z,110
2017-12-06T09:21:05.114Z,110
2017-12-06T09:22:04.883Z,110
2017-12-06T09:23:05.042Z,110
2017-12-06T09:24:05.412Z,110
2017-12-06T09:25:05.211Z,110
2017-12-06T09:26:05.442Z,115
2017-12-06T09:27:05.205Z,120
2017-12-06T09:28:04.961Z,120
2017-12-06T09:29:05.486Z,120
2017-12-06T09:30:05.252Z,120
2017-12-06T09:31:05.006Z,130
2017-12-06T09:32:05.274Z,125
2017-12-06T09:33:05.541Z,125
2017-12-06T09:34:05.301Z,120
2017-12-06T09:35:05.317Z,120
2017-12-06T09:36:04.824Z,120
2017-12-06T09:37:05.340Z,120
2017-12-06T09:38:05.355Z,125
2017-12-06T09:39:05.367Z,130
2017-12-06T09:40:05.692Z,130
2017-12-06T09:41:05.693Z,130
2017-12-06T09:42:05.157Z,125
2017-12-06T09:43:05.425Z,125
2017-12-06T09:44:05.208Z,120
2017-12-06T09:45:05.706Z,120
2017-12-06T09:46:05.469Z,120
2017-12-06T09:47:05.731Z,120
2017-12-06T09:48:05.239Z,120
2017-12-06T09:49:05.771Z,120
2017-12-06T09:50:05.771Z,125
2017-12-06T09:51:05.546Z,120
2017-12-06T09:52:05.573Z,120
2017-12-06T09:53:05.563Z,120
2017-12-06T09:54:05.576Z,120
2017-12-06T09:55:05.633Z,115
2017-12-06T09:56:05.089Z,110
2017-12-06T09:57:05.105Z,110
2017-12-06T09:58:05.616Z,110
2017-12-06T09:59:05.648Z,115
2017-12-06T10:00:05.917Z,115
2017-12-06T10:01:06.016Z,110
2017-12-06T10:02:05.941Z,110
2017-12-06T10:03:05.713Z,110
2017-12-06T10:04:05.459Z,110
2017-12-06T10:05:05.731Z,115
2017-12-06T10:06:05.495Z,120
2017-12-06T10:07:05.751Z,120
2017-12-06T10:08:06.031Z,120
2017-12-06T10:09:06.032Z,115
2017-12-06T10:10:05.596Z,110
2017-12-06T10:11:06.064Z,110
2017-12-06T10:12:05.576Z,105
2017-12-06T10:13:05.830Z,105
2017-12-06T10:14:05.936Z,105
2017-12-06T10:15:05.865Z,110
2017-12-06T10:16:05.884Z,110
2017-12-06T10:17:05.641Z,115
2017-12-06T10:18:05.917Z,115
2017-12-06T10:19:05.680Z,115
2017-12-06T10:20:05.936Z,120
2017-12-06T10:21:05.959Z,125
2017-12-06T10:22:06.291Z,125
2017-12-06T10:23:06.235Z,125
2017-12-06T10:24:06.243Z,130
2017-12-06T10:25:06.323Z,125
2017-12-06T10:26:06.022Z,120
2017-12-06T10:27:06.298Z,120
2017-12-06T10:28:06.061Z,120
2017-12-06T10:29:05.808Z,120
2017-12-06T10:30:05.826Z,120
2017-12-06T10:31:05.835Z,120
2017-12-06T10:32:05.599Z,125
2017-12-06T10:33:05.612Z,120
2017-12-06T10:34:06.385Z,125
2017-12-06T10:35:05.894Z,125
2017-12-06T10:36:06.158Z,125
2017-12-06T10:37:05.924Z,125
2017-12-06T10:38:06.187Z,125
2017-12-06T10:39:06.209Z,120
2017-12-06T10:40:06.011Z,115
2017-12-06T10:41:05.977Z,115
2017-12-06T10:42:05.983Z,105
2017-12-06T10:43:06.001Z,110
2017-12-06T10:44:06.519Z,110
2017-12-06T10:45:06.638Z,115
2017-12-06T10:46:06.300Z,125
2017-12-06T10:47:06.309Z,135
2017-12-06T10:48:06.323Z,140
2017-12-06T10:49:06.587Z,145
2017-12-06T10:50:06.353Z,150
2017-12-06T10:51:06.109Z,155
2017-12-06T10:52:06.133Z,155
2017-12-06T10:53:06.136Z,150
2017-12-06T10:54:06.407Z,150
2017-12-06T10:55:06.170Z,150
2017-12-06T10:56:06.734Z,145
2017-12-06T10:57:05.940Z,140
2017-12-06T10:58:06.553Z,140
2017-12-06T10:59:06.729Z,140
2017-12-06T11:00:06.240Z,140
2017-12-06T11:01:06.757Z,140
2017-12-06T11:02:06.265Z,140
2017-12-06T11:03:06.532Z,145
2017-12-06T11:04:06.292Z,140
2017-12-06T11:05:06.555Z,135
2017-12-06T11:06:06.370Z,130
2017-12-06T11:07:06.836Z,130
2017-12-06T11:08:06.619Z,130
2017-12-06T11:09:06.355Z,130
2017-12-06T11:10:06.876Z,130
2017-12-06T11:11:06.687Z,125
2017-12-06T11:12:06.406Z,120
2017-12-06T11:13:06.665Z,120
2017-12-06T11:14:06.431Z,120
2017-12-06T11:15:06.701Z,120
2017-12-06T11:16:06.732Z,120
2017-12-06T11:17:06.723Z,120
2017-12-06T11:18:06.483Z,120
2017-12-06T11:19:06.497Z,120
2017-12-06T11:20:06.512Z,115
2017-12-06T11:21:06.805Z,115
2017-12-06T11:22:06.540Z,115
2017-12-06T11:23:06.811Z,120
2017-12-06T11:24:07.075Z,115
2017-12-06T11:25:06.894Z,115
2017-12-06T11:26:06.646Z,115
2017-12-06T11:27:07.119Z,120
2017-12-06T11:28:06.623Z,125
2017-12-06T11:29:06.380Z,130
2017-12-06T11:30:06.656Z,130
2017-12-06T11:31:07.170Z,125
2017-12-06T11:32:06.931Z,115
2017-12-06T11:33:06.435Z,105
2017-12-06T11:34:06.960Z,105
2017-12-06T11:35:06.974Z,110
2017-12-06T11:36:07.089Z,115
2017-12-06T11:37:06.753Z,120
2017-12-06T11:38:06.765Z,130
2017-12-06T11:39:07.282Z,130
2017-12-06T11:40:07.305Z,130
2017-12-06T11:41:07.364Z,125
2017-12-06T11:42:07.336Z,125
2017-12-06T11:43:07.338Z,125
2017-12-06T11:44:07.107Z,130
2017-12-06T11:45:06.868Z,130
2017-12-06T11:46:07.178Z,135
2017-12-06T11:47:07.402Z,135
2017-12-06T11:48:06.701Z,135
2017-12-06T11:49:06.922Z,125
2017-12-06T11:50:07.433Z,125
2017-12-06T11:51:07.445Z,125
2017-12-06T11:52:07.271Z,120
2017-12-06T11:53:07.234Z,115
2017-12-06T11:54:06.992Z,115
2017-12-06T11:55:07.506Z,120
2017-12-06T11:56:07.313Z,110
2017-12-06T11:57:07.528Z,110
2017-12-06T11:58:07.294Z,115
2017-12-06T11:59:07.315Z,120
2017-12-06T12:00:07.074Z,120
2017-12-06T12:01:07.340Z,120
2017-12-06T12:02:07.598Z,120
2017-12-06T12:03:07.407Z,115
2017-12-06T12:04:07.388Z,105
2017-12-06T12:05:06.884Z,105
2017-12-06T12:06:07.253Z,95
2017-12-06T12:07:07.415Z,95
2017-12-06T12:08:07.476Z,100
2017-12-06T12:09:07.700Z,110
2017-12-06T12:10:07.207Z,110
2017-12-06T12:11:07.273Z,110
2017-12-06T12:12:07.502Z,110
2017-12-06T12:13:07.278Z,110
2017-12-06T12:14:07.773Z,105
2017-12-06T12:15:07.296Z,100
2017-12-06T12:16:07.822Z,100
2017-12-06T12:17:07.065Z,100
2017-12-06T12:18:07.322Z,100
2017-12-06T12:19:07.840Z,95
2017-12-06T12:20:07.347Z,95
2017-12-06T12:21:07.933Z,95
2017-12-06T12:22:07.375Z,95
2017-12-06T12:23:07.640Z,95
2017-12-06T12:24:07.405Z,100
2017-12-06T12:25:07.924Z,105
2017-12-06T12:26:07.227Z,110
2017-12-06T12:27:07.704Z,105
2017-12-06T12:28:07.714Z,105
2017-12-06T12:29:07.730Z,100
2017-12-06T12:30:07.501Z,100
2017-12-06T12:31:07.246Z,100
2017-12-06T12:32:07.766Z,105
2017-12-06T12:33:07.785Z,105
2017-12-06T12:34:07.804Z,105
2017-12-06T12:35:07.809Z,100
2017-12-06T12:36:08.072Z,90
2017-12-06T12:37:07.588Z,90
2017-12-06T12:38:08.103Z,90
2017-12-06T12:39:07.613Z,90
2017-12-06T12:40:07.626Z,85
2017-12-06T12:41:07.692Z,90
2017-12-06T12:42:07.909Z,90
2017-12-06T12:43:07.669Z,85
2017-12-06T12:44:08.189Z,85
2017-12-06T12:45:08.214Z,80
2017-12-06T12:46:07.710Z,75
2017-12-06T12:47:08.393Z,75
2017-12-06T12:48:08.005Z,75
2017-12-06T12:49:08.263Z,75
2017-12-06T12:50:08.283Z,80
2017-12-06T12:51:08.239Z,80
2017-12-06T12:52:08.320Z,75
2017-12-06T12:53:07.819Z,75
2017-12-06T12:54:08.331Z,75
2017-12-06T12:55:08.345Z,75
2017-12-06T12:56:08.411Z,80
2017-12-06T12:57:07.864Z,75
2017-12-06T12:58:07.873Z,70
2017-12-06T12:59:08.404Z,70
2017-12-06T13:00:08.160Z,70
2017-12-06T13:01:08.468Z,70
2017-12-06T13:02:07.935Z,65
2017-12-06T13:03:08.204Z,65
2017-12-06T13:04:07.959Z,60
2017-12-06T13:05:08.228Z,60
2017-12-06T13:06:08.232Z,55
2017-12-06T13:07:08.254Z,55
2017-12-06T13:08:08.006Z,55
2017-12-06T13:09:08.281Z,55
2017-12-06T13:10:08.543Z,55
2017-12-06T13:11:08.568Z,50
2017-12-06T13:12:08.384Z,50
2017-12-06T13:13:08.084Z,50
2017-12-06T13:14:08.609Z,50
2017-12-06T13:15:08.610Z,50
2017-12-06T13:16:08.376Z,50
2017-12-06T13:17:08.649Z,50
2017-12-06T13:18:08.170Z,50
2017-12-06T13:19:08.419Z,50
2017-12-06T13:20:08.436Z,50
2017-12-06T13:21:08.695Z,50
2017-12-06T13:22:08.452Z,50
2017-12-06T13:23:08.214Z,50
2017-12-06T13:24:08.482Z,50
2017-12-06T13:25:08.250Z,50
2017-12-06T13:26:08.507Z,50
2017-12-06T13:27:08.154Z,50
2017-12-06T13:28:08.537Z,50
2017-12-06T13:29:08.560Z,55
2017-12-06T13:30:08.559Z,55
2017-12-06T13:31:08.343Z,50
2017-12-06T13:32:08.596Z,50
2017-12-06T13:33:08.350Z,50
2017-12-06T13:34:08.617Z,55
2017-12-06T13:35:08.126Z,55
2017-12-06T13:36:08.135Z,50
2017-12-06T13:37:08.411Z,50
2017-12-06T13:38:08.674Z,50
2017-12-06T13:39:08.938Z,50
2017-12-06T13:40:08.704Z,50
2017-12-06T13:41:08.710Z,50
2017-12-06T13:42:09.026Z,50
2017-12-06T13:43:08.951Z,55
2017-12-06T13:44:08.754Z,55
2017-12-06T13:45:09.074Z,55
2017-12-06T13:46:08.531Z,55
2017-12-06T13:47:08.789Z,50
2017-12-06T13:48:09.076Z,50
2017-12-06T13:49:08.819Z,50
2017-12-06T13:50:08.574Z,50
2017-12-06T13:51:09.095Z,50
2017-12-06T13:52:09.013Z,50
2017-12-06T13:53:08.867Z,50
2017-12-06T13:54:08.404Z,50
2017-12-06T13:55:08.902Z,50
2017-12-06T13:56:08.904Z,50
2017-12-06T13:57:09.224Z,45
2017-12-06T13:58:08.454Z,45
2017-12-06T13:59:08.948Z,40
2017-12-06T14:00:08.969Z,40
2017-12-06T14:01:08.975Z,40
2017-12-06T14:02:09.247Z,40
2017-12-06T14:03:09.005Z,40
2017-12-06T14:04:09.014Z,40
2017-12-06T14:05:09.030Z,40
2017-12-06T14:06:09.039Z,40
2017-12-06T14:07:08.804Z,35
2017-12-06T14:08:09.319Z,35
2017-12-06T14:09:09.089Z,40
2017-12-06T14:10:08.842Z,40
2017-12-06T14:11:09.109Z,40
2017-12-06T14:12:09.174Z,40
2017-12-06T14:13:08.644Z,40
2017-12-06T14:14:08.648Z,35
2017-12-06T14:15:09.423Z,35
2017-12-06T14:16:09.173Z,35
2017-12-06T14:17:08.934Z,30
2017-12-06T14:18:09.207Z,30
2017-12-06T14:19:09.474Z,30
2017-12-06T14:20:08.973Z,30
2017-12-06T14:21:09.239Z,30
2017-12-06T14:22:09.015Z,30
2017-12-06T14:23:09.022Z,30
2017-12-06T14:40:00.364Z,20